Portland, Oregon
Current Conditions -  °F | °C
As of 4:53 PM on Friday 24 Oct 2014 (Local Time) from KPDX Reporting Station
Light Rain Light Rain  
Wind Chill: 55°   Ceiling: 6500
Heat Index: 55°   Visibility: 9mi
Dew Point: 51°   Wind: 5mph
Humidity: 86%   Direction: 60°ENE
Pressure: 29.84"   Gusts: NA
Location:  45.51°N, 122.67°W
Report Text: KPDX 242353Z 06004KT 9SM -RA BKN065 OVC085 13/11 A2984 RMK AO2 SLP103 P0003 60008 T01280106 10133 20122 58028
Loading
Personal Weather Stations






























Interactive Weather Map
Tropical Storm Tracking
New forecast layout! Learn more

10-Day Weather Forecast

Advertisements
Track Severe Weather on mobile